createdAt,value
2018-09-04T00:00:39.449Z,10.53
2018-09-04T00:03:10.970Z,10.47
2018-09-04T00:05:41.878Z,11.07
2018-09-04T00:08:11.935Z,11.00
2018-09-04T00:10:43.576Z,11.07
2018-09-04T00:13:14.295Z,11.20
2018-09-04T00:15:45.159Z,10.50
2018-09-04T00:18:15.791Z,11.20
2018-09-04T00:20:47.313Z,11.40
2018-09-04T00:23:18.734Z,10.37
2018-09-04T00:25:50.063Z,9.87
2018-09-04T00:28:21.046Z,10.97
2018-09-04T00:30:52.270Z,10.63
2018-09-04T00:33:23.372Z,11.43
2018-09-04T00:35:55.055Z,10.93
2018-09-04T00:38:26.035Z,11.00
2018-09-04T00:40:57.610Z,10.83
2018-09-04T00:43:28.145Z,10.63
2018-09-04T00:45:59.445Z,10.37
2018-09-04T00:48:31.202Z,11.63
2018-09-04T00:51:02.686Z,10.10
2018-09-04T00:53:34.351Z,10.03
2018-09-04T00:56:06.228Z,10.27
2018-09-04T00:58:37.294Z,10.77
2018-09-04T01:01:09.353Z,10.13
2018-09-04T01:03:41.192Z,10.30
2018-09-04T01:06:12.333Z,9.83
2018-09-04T01:08:44.052Z,10.57
2018-09-04T01:11:14.986Z,9.87
2018-09-04T01:13:47.360Z,10.47
2018-09-04T01:16:18.759Z,9.83
2018-09-04T01:18:50.721Z,10.47
2018-09-04T01:21:21.472Z,9.80
2018-09-04T01:23:53.309Z,8.80
2018-09-04T01:26:24.347Z,9.30
2018-09-04T01:28:56.182Z,8.47
2018-09-04T01:31:27.826Z,10.00
2018-09-04T01:33:59.138Z,10.40
2018-09-04T01:36:30.547Z,8.23
2018-09-04T01:39:02.193Z,6.90
2018-09-04T01:41:33.192Z,6.10
2018-09-04T01:44:04.132Z,4.93
2018-09-04T01:46:35.653Z,3.73
2018-09-04T01:49:07.444Z,3.37
2018-09-04T01:51:38.270Z,3.27
2018-09-04T01:54:09.706Z,3.30
2018-09-04T01:56:41.457Z,3.60
2018-09-04T01:59:12.774Z,3.43
2018-09-04T02:01:44.118Z,3.40
2018-09-04T02:04:15.908Z,3.57
2018-09-04T02:06:47.526Z,3.90
2018-09-04T02:09:19.313Z,3.03
2018-09-04T02:11:50.591Z,3.37
2018-09-04T02:14:21.721Z,3.40
2018-09-04T02:16:53.262Z,3.70
2018-09-04T02:19:24.585Z,3.50
2018-09-04T02:21:56.085Z,3.50
2018-09-04T02:24:27.158Z,2.87
2018-09-04T02:26:58.688Z,3.57
2018-09-04T02:29:29.889Z,4.33
2018-09-04T02:32:01.515Z,4.53
2018-09-04T02:34:33.055Z,4.57
2018-09-04T02:37:04.408Z,4.83
2018-09-04T02:39:36.250Z,5.07
2018-09-04T02:42:08.061Z,4.73
2018-09-04T02:44:39.557Z,4.47
2018-09-04T02:47:11.757Z,4.23
2018-09-04T02:49:43.837Z,5.30
2018-09-04T02:52:15.623Z,4.87
2018-09-04T02:54:47.069Z,4.80
2018-09-04T02:57:18.260Z,4.37
2018-09-04T02:59:50.022Z,4.23
2018-09-04T03:02:21.699Z,4.70
2018-09-04T03:04:53.290Z,3.77
2018-09-04T03:07:25.067Z,4.23
2018-09-04T03:09:55.899Z,3.60
2018-09-04T03:12:26.932Z,3.80
2018-09-04T03:14:57.865Z,4.03
2018-09-04T03:17:29.265Z,3.90
2018-09-04T03:20:00.378Z,3.60
2018-09-04T03:22:31.431Z,3.73
2018-09-04T03:25:02.777Z,4.20
2018-09-04T03:27:33.932Z,4.30
2018-09-04T03:30:04.952Z,4.33
2018-09-04T03:32:36.844Z,3.70
2018-09-04T03:35:08.216Z,4.70
2018-09-04T03:37:40.791Z,5.77
2018-09-04T03:40:12.533Z,4.60
2018-09-04T03:42:44.346Z,4.60
2018-09-04T03:45:14.384Z,4.07
2018-09-04T03:47:44.450Z,7.10
2018-09-04T03:50:14.769Z,4.07
2018-09-04T03:52:45.037Z,3.53
2018-09-04T03:55:15.305Z,3.60
2018-09-04T03:57:45.838Z,4.17
2018-09-04T04:00:16.026Z,3.50
2018-09-04T04:02:46.327Z,3.90
2018-09-04T04:05:16.580Z,4.20
2018-09-04T04:07:46.650Z,4.07
2018-09-04T04:10:16.672Z,4.13
2018-09-04T04:12:47.117Z,4.47
2018-09-04T04:15:17.169Z,3.63
2018-09-04T04:17:47.324Z,4.00
2018-09-04T04:20:17.656Z,3.30
2018-09-04T04:22:48.145Z,3.40
2018-09-04T04:25:18.449Z,3.47
2018-09-04T04:27:48.547Z,3.67
2018-09-04T04:30:18.681Z,3.40
2018-09-04T04:32:48.940Z,3.27
2018-09-04T04:35:19.168Z,3.10
2018-09-04T04:37:49.418Z,3.70
2018-09-04T04:40:19.511Z,3.70
2018-09-04T04:42:49.737Z,3.53
2018-09-04T04:45:19.958Z,6.87
2018-09-04T04:47:50.613Z,3.53
2018-09-04T04:50:20.757Z,3.47
2018-09-04T04:52:51.072Z,3.53
2018-09-04T04:55:21.224Z,3.90
2018-09-04T04:57:51.703Z,4.80
2018-09-04T05:00:22.069Z,3.57
2018-09-04T05:02:52.405Z,3.80
2018-09-04T05:05:22.618Z,3.67
2018-09-04T05:07:53.181Z,3.50
2018-09-04T05:10:23.508Z,3.13
2018-09-04T05:12:54.032Z,3.30
2018-09-04T05:15:24.174Z,3.40
2018-09-04T05:17:54.640Z,3.57
2018-09-04T05:20:26.584Z,3.10
2018-09-04T05:22:57.034Z,3.30
2018-09-04T05:25:27.278Z,2.97
2018-09-04T05:27:57.501Z,3.60
2018-09-04T05:30:27.912Z,3.53
2018-09-04T05:34:05.348Z,2.90
2018-09-04T05:36:35.624Z,2.83
2018-09-04T05:39:08.537Z,2.83
2018-09-04T05:41:38.946Z,3.00
2018-09-04T05:44:09.503Z,2.97
2018-09-04T05:46:46.658Z,2.77
2018-09-04T05:49:19.031Z,3.10
2018-09-04T05:51:49.618Z,3.67
2018-09-04T05:54:20.152Z,3.00
2018-09-04T05:56:50.533Z,3.53
2018-09-04T05:59:21.933Z,4.13
2018-09-04T06:01:52.436Z,3.67
2018-09-04T06:04:23.106Z,3.10
2018-09-04T06:06:53.254Z,3.30
2018-09-04T06:09:24.660Z,3.33
2018-09-04T06:11:55.150Z,4.53
2018-09-04T06:14:25.273Z,4.60
2018-09-04T06:16:55.576Z,4.57
2018-09-04T06:19:26.945Z,5.10
2018-09-04T06:21:57.101Z,4.50
2018-09-04T06:24:27.341Z,5.33
2018-09-04T06:26:57.693Z,5.40
2018-09-04T06:29:27.839Z,4.80
2018-09-04T06:31:57.881Z,4.87
2018-09-04T06:34:28.214Z,4.90
2018-09-04T06:37:01.330Z,5.57
2018-09-04T06:39:31.752Z,5.20
2018-09-04T06:42:02.015Z,4.63
2018-09-04T06:44:32.169Z,4.40
2018-09-04T06:47:02.322Z,3.97
2018-09-04T06:49:32.850Z,4.20
2018-09-04T06:52:03.167Z,5.20
2018-09-04T06:54:33.388Z,5.10
2018-09-04T06:57:03.676Z,4.87
2018-09-04T06:59:33.937Z,4.50
2018-09-04T07:02:04.249Z,4.87
2018-09-04T07:04:34.610Z,6.13
2018-09-04T07:07:04.891Z,5.70
2018-09-04T07:09:35.296Z,6.40
2018-09-04T07:12:05.520Z,7.57
2018-09-04T07:14:35.727Z,9.67
2018-09-04T07:17:05.966Z,7.30
2018-09-04T07:19:36.162Z,8.37
2018-09-04T07:22:06.243Z,8.93
2018-09-04T07:24:36.415Z,8.37
2018-09-04T07:27:06.336Z,7.53
2018-09-04T07:29:37.659Z,8.70
2018-09-04T07:32:07.916Z,7.70
2018-09-04T07:34:38.393Z,8.17
2018-09-04T07:37:08.693Z,7.90
2018-09-04T07:39:39.048Z,8.50
2018-09-04T07:42:09.151Z,7.73
2018-09-04T07:44:39.414Z,8.53
2018-09-04T07:47:09.548Z,7.87
2018-09-04T07:49:39.921Z,8.47
2018-09-04T07:52:10.040Z,8.67
2018-09-04T07:54:40.376Z,8.57
2018-09-04T07:57:10.679Z,8.70
2018-09-04T07:59:40.879Z,9.03
2018-09-04T08:02:11.152Z,8.87
2018-09-04T08:04:41.492Z,8.93
2018-09-04T08:07:11.762Z,9.97
2018-09-04T08:09:42.098Z,10.20
2018-09-04T08:12:12.341Z,9.47
2018-09-04T08:14:42.734Z,9.80
2018-09-04T08:17:13.000Z,10.50
2018-09-04T08:19:43.195Z,9.57
2018-09-04T08:22:13.457Z,9.53
2018-09-04T08:24:43.637Z,9.07
2018-09-04T08:27:13.733Z,9.50
2018-09-04T08:29:44.165Z,9.33
2018-09-04T08:32:14.444Z,9.40
2018-09-04T08:34:44.763Z,9.53
2018-09-04T08:37:15.152Z,9.30
2018-09-04T08:39:45.539Z,9.43
2018-09-04T08:42:15.687Z,9.93
2018-09-04T08:44:45.990Z,8.90
2018-09-04T08:47:16.981Z,8.43
2018-09-04T08:49:48.028Z,8.87
2018-09-04T08:52:19.776Z,9.40
2018-09-04T08:54:50.468Z,9.30
2018-09-04T08:57:20.779Z,9.63
2018-09-04T08:59:51.069Z,10.10
2018-09-04T09:02:21.550Z,9.30
2018-09-04T09:04:51.676Z,9.38
2018-09-04T09:07:22.121Z,8.83
2018-09-04T09:09:53.018Z,9.03
2018-09-04T09:12:23.616Z,8.75
2018-09-04T09:14:54.116Z,8.73
2018-09-04T09:17:24.679Z,9.38
2018-09-04T09:19:55.117Z,8.25
2018-09-04T09:22:25.503Z,8.50
2018-09-04T09:24:55.764Z,9.25
2018-09-04T09:27:25.874Z,9.23
2018-09-04T09:29:56.194Z,9.20
2018-09-04T09:32:26.582Z,8.40
2018-09-04T09:34:56.794Z,8.38
2018-09-04T09:37:27.166Z,9.78
2018-09-04T09:39:57.538Z,8.05
2018-09-04T09:42:27.934Z,9.43
2018-09-04T09:44:57.974Z,18.30
2018-09-04T09:47:28.044Z,13.68
2018-09-04T09:49:58.522Z,9.88
2018-09-04T09:52:28.978Z,9.05
2018-09-04T09:54:59.492Z,8.03
2018-09-04T09:57:30.054Z,8.83
2018-09-04T10:00:00.433Z,8.15
2018-09-04T10:02:35.555Z,7.92
2018-09-04T10:05:05.838Z,8.15
2018-09-04T10:07:36.104Z,8.48
2018-09-04T10:10:06.612Z,9.03
2018-09-04T10:12:37.082Z,9.03
2018-09-04T10:15:08.828Z,10.72
2018-09-04T10:17:39.452Z,11.20
2018-09-04T10:20:10.080Z,8.65
2018-09-04T10:22:40.579Z,8.63
2018-09-04T10:25:10.935Z,8.45
2018-09-04T10:27:41.132Z,9.03
2018-09-04T10:30:15.600Z,9.05
2018-09-04T10:32:51.447Z,10.25
2018-09-04T10:35:22.925Z,9.50
2018-09-04T10:37:53.307Z,8.88
2018-09-04T10:40:29.007Z,9.70
2018-09-04T10:42:59.537Z,9.08
2018-09-04T10:45:34.838Z,10.25
2018-09-04T10:48:05.128Z,9.90
2018-09-04T10:50:35.427Z,8.75
2018-09-04T10:53:05.598Z,9.03
2018-09-04T10:55:35.981Z,9.23
2018-09-04T10:58:06.719Z,8.78
2018-09-04T11:00:36.816Z,8.98
2018-09-04T11:03:07.036Z,8.30
2018-09-04T11:05:37.354Z,9.53
2018-09-04T11:08:07.527Z,9.55
2018-09-04T11:10:37.903Z,9.48
2018-09-04T11:13:08.885Z,9.13
2018-09-04T11:15:39.019Z,9.60
2018-09-04T11:18:09.405Z,9.63
2018-09-04T11:20:40.054Z,9.30
2018-09-04T11:23:10.344Z,9.38
2018-09-04T11:25:40.532Z,9.60
2018-09-04T11:28:10.638Z,9.45
2018-09-04T11:30:41.040Z,9.85
2018-09-04T11:33:11.429Z,9.23
2018-09-04T11:35:41.803Z,9.93
2018-09-04T11:38:11.998Z,9.35
2018-09-04T11:40:42.423Z,9.03
2018-09-04T11:43:12.762Z,10.10
2018-09-04T11:45:43.004Z,9.40
2018-09-04T11:48:16.335Z,10.32
2018-09-04T11:50:46.843Z,9.85
2018-09-04T11:53:17.062Z,9.95
2018-09-04T11:55:47.678Z,10.23
2018-09-04T11:58:17.836Z,9.43
2018-09-04T12:00:49.200Z,10.20
2018-09-04T12:03:19.510Z,9.83
2018-09-04T12:05:49.837Z,9.68
2018-09-04T12:08:19.857Z,9.60
2018-09-04T12:10:50.052Z,9.90
2018-09-04T12:13:25.263Z,9.83
2018-09-04T12:15:55.481Z,10.75
2018-09-04T12:18:25.662Z,10.50
2018-09-04T12:20:58.402Z,10.32
2018-09-04T12:23:28.789Z,11.18
2018-09-04T12:26:00.238Z,10.98
2018-09-04T12:28:30.353Z,11.48
2018-09-04T12:31:01.145Z,10.70
2018-09-04T12:33:31.647Z,10.98
2018-09-04T12:36:02.014Z,10.80
2018-09-04T12:38:36.356Z,10.50
2018-09-04T12:41:08.009Z,10.40
2018-09-04T12:43:38.747Z,10.38
2018-09-04T12:46:08.952Z,10.20
2018-09-04T12:48:39.373Z,10.20
2018-09-04T12:51:09.525Z,10.35
2018-09-04T12:53:39.805Z,10.25
2018-09-04T12:56:10.198Z,10.72
2018-09-04T12:58:40.545Z,10.85
2018-09-04T13:01:11.123Z,10.60
2018-09-04T13:03:41.531Z,9.88
2018-09-04T13:06:11.676Z,10.88
2018-09-04T13:08:41.972Z,10.75
2018-09-04T13:11:12.353Z,11.28
2018-09-04T13:13:42.698Z,11.97
2018-09-04T13:16:13.119Z,11.73
2018-09-04T13:18:43.651Z,11.57
2018-09-04T13:21:14.078Z,12.07
2018-09-04T13:23:44.333Z,11.28
2018-09-04T13:26:14.317Z,12.58
2018-09-04T13:28:44.524Z,12.30
2018-09-04T13:31:14.914Z,11.33
2018-09-04T13:33:45.283Z,12.20
2018-09-04T13:36:15.546Z,12.37
2018-09-04T13:38:45.878Z,11.93
2018-09-04T13:41:16.152Z,11.78
2018-09-04T13:43:46.495Z,11.60
2018-09-04T13:46:16.711Z,12.13
2018-09-04T13:48:46.997Z,11.60
2018-09-04T13:51:17.386Z,11.73
2018-09-04T13:53:47.764Z,11.97
2018-09-04T13:56:18.015Z,12.00
2018-09-04T13:58:48.246Z,12.00
2018-09-04T14:01:18.617Z,12.18
2018-09-04T14:03:48.977Z,11.90
2018-09-04T14:06:19.206Z,12.58
2018-09-04T14:08:49.298Z,12.90
2018-09-04T14:11:19.924Z,12.78
2018-09-04T14:13:50.036Z,12.30
2018-09-04T14:16:23.550Z,12.88
2018-09-04T14:18:53.682Z,12.15
2018-09-04T14:21:23.971Z,12.23
2018-09-04T14:23:54.245Z,12.95
2018-09-04T14:26:24.152Z,13.40
2018-09-04T14:29:07.051Z,12.60
2018-09-04T14:31:24.655Z,14.45
2018-09-04T14:33:55.363Z,12.78
2018-09-04T14:36:25.571Z,12.18
2018-09-04T14:38:55.588Z,12.63
2018-09-04T14:41:25.876Z,13.38
2018-09-04T14:43:56.162Z,13.85
2018-09-04T14:46:26.444Z,12.93
2018-09-04T14:48:56.702Z,12.13
2018-09-04T14:51:26.942Z,13.62
2018-09-04T14:53:57.203Z,18.80
2018-09-04T14:56:27.599Z,14.90
2018-09-04T14:58:58.362Z,13.38
2018-09-04T15:01:28.792Z,12.63
2018-09-04T15:03:59.987Z,12.98
2018-09-04T15:06:30.275Z,13.70
2018-09-04T15:09:00.410Z,9.83
2018-09-04T15:11:30.841Z,7.67
2018-09-04T15:14:01.219Z,7.63
2018-09-04T15:16:31.965Z,7.07
2018-09-04T15:19:02.583Z,6.70
2018-09-04T15:21:32.945Z,6.47
2018-09-04T15:24:03.595Z,6.37
2018-09-04T15:26:33.908Z,6.83
2018-09-04T15:29:04.400Z,6.43
2018-09-04T15:31:34.828Z,6.60
2018-09-04T15:34:05.393Z,6.50
2018-09-04T15:36:35.644Z,6.03
2018-09-04T15:39:06.643Z,6.23
2018-09-04T15:41:37.237Z,6.50
2018-09-04T15:44:07.561Z,6.07
2018-09-04T15:46:37.736Z,6.27
2018-09-04T15:49:12.995Z,5.97
2018-09-04T15:51:43.148Z,6.27
2018-09-04T15:54:13.230Z,6.23
2018-09-04T15:56:43.540Z,6.40
2018-09-04T15:59:13.854Z,6.37
2018-09-04T16:01:44.177Z,6.20
2018-09-04T16:04:14.382Z,6.63
2018-09-04T16:06:44.550Z,6.60
2018-09-04T16:09:14.610Z,6.50
2018-09-04T16:11:44.614Z,7.03
2018-09-04T16:14:14.764Z,8.23
2018-09-04T16:16:44.800Z,7.20
2018-09-04T16:19:15.044Z,7.37
2018-09-04T16:21:45.453Z,6.97
2018-09-04T16:24:15.880Z,6.93
2018-09-04T16:26:45.994Z,7.67
2018-09-04T16:29:16.134Z,7.37
2018-09-04T16:31:46.423Z,8.03
2018-09-04T16:34:16.740Z,6.83
2018-09-04T16:36:46.844Z,7.07
2018-09-04T16:39:16.951Z,7.03
2018-09-04T16:41:47.235Z,6.60
2018-09-04T16:44:17.335Z,6.87
2018-09-04T16:46:47.615Z,7.47
2018-09-04T16:49:17.956Z,8.10
2018-09-04T16:51:48.319Z,7.47
2018-09-04T16:54:18.493Z,7.07
2018-09-04T16:56:48.854Z,7.50
2018-09-04T16:59:19.025Z,7.30
2018-09-04T17:01:49.034Z,7.00
2018-09-04T17:04:19.288Z,7.07
2018-09-04T17:06:49.486Z,7.50
2018-09-04T17:09:19.721Z,7.17
2018-09-04T17:11:49.936Z,7.47
2018-09-04T17:14:20.171Z,7.17
2018-09-04T17:16:50.264Z,6.60
2018-09-04T17:19:20.695Z,7.10
2018-09-04T17:21:51.181Z,7.67
2018-09-04T17:24:21.452Z,6.67
2018-09-04T17:26:51.588Z,6.90
2018-09-04T17:29:21.872Z,7.40
2018-09-04T17:31:52.289Z,7.80
2018-09-04T17:34:22.355Z,7.70
2018-09-04T17:36:52.943Z,7.40
2018-09-04T17:39:23.338Z,7.80
2018-09-04T17:41:54.581Z,7.50
2018-09-04T17:44:24.784Z,7.10
2018-09-04T17:46:55.891Z,7.30
2018-09-04T17:49:26.026Z,7.77
2018-09-04T17:51:56.522Z,7.80
2018-09-04T17:54:26.710Z,7.00
2018-09-04T17:56:57.034Z,7.03
2018-09-04T17:59:27.339Z,7.83
2018-09-04T18:01:57.996Z,7.20
2018-09-04T18:04:28.124Z,7.53
2018-09-04T18:06:58.399Z,6.63
2018-09-04T18:09:28.688Z,6.47
2018-09-04T18:11:59.272Z,7.33
2018-09-04T18:14:30.635Z,7.17
2018-09-04T18:17:01.048Z,7.27
2018-09-04T18:19:31.579Z,7.10
2018-09-04T18:22:02.152Z,7.47
2018-09-04T18:24:32.715Z,6.90
2018-09-04T18:27:02.880Z,7.30
2018-09-04T18:29:33.138Z,7.03
2018-09-04T18:32:03.557Z,8.10
2018-09-04T18:34:33.855Z,7.63
2018-09-04T18:37:04.027Z,7.70
2018-09-04T18:39:34.369Z,7.10
2018-09-04T18:42:05.792Z,8.33
2018-09-04T18:44:36.316Z,7.90
2018-09-04T18:47:06.628Z,7.90
2018-09-04T18:49:36.630Z,7.50
2018-09-04T18:52:07.068Z,8.40
2018-09-04T18:54:37.544Z,8.57
2018-09-04T18:57:07.941Z,7.73
2018-09-04T18:59:38.061Z,7.43
2018-09-04T19:02:08.343Z,7.90
2018-09-04T19:04:38.493Z,9.40
2018-09-04T19:07:08.887Z,9.23
2018-09-04T19:09:39.094Z,9.90
2018-09-04T19:12:09.546Z,10.00
2018-09-04T19:14:39.926Z,9.73
2018-09-04T19:17:10.386Z,9.17
2018-09-04T19:19:40.664Z,9.73
2018-09-04T19:22:11.109Z,9.40
2018-09-04T19:24:41.353Z,8.07
2018-09-04T19:27:11.478Z,9.00
2018-09-04T19:29:41.765Z,9.23
2018-09-04T19:32:12.182Z,8.70
2018-09-04T19:34:42.463Z,8.67
2018-09-04T19:37:12.527Z,8.90
2018-09-04T19:39:43.029Z,9.17
2018-09-04T19:42:13.421Z,9.40
2018-09-04T19:44:43.463Z,9.57
2018-09-04T19:47:13.753Z,9.10
2018-09-04T19:49:44.108Z,8.13
2018-09-04T19:52:14.548Z,8.83
2018-09-04T19:54:45.161Z,9.17
2018-09-04T19:57:16.791Z,8.53
2018-09-04T19:59:47.149Z,9.30
2018-09-04T20:02:17.650Z,9.40
2018-09-04T20:04:47.778Z,8.90
2018-09-04T20:07:18.501Z,8.93
2018-09-04T20:09:49.094Z,8.83
2018-09-04T20:12:19.484Z,8.67
2018-09-04T20:14:49.876Z,8.90
2018-09-04T20:17:20.164Z,9.03
2018-09-04T20:19:51.485Z,8.57
2018-09-04T20:22:22.045Z,8.47
2018-09-04T20:24:52.446Z,8.67
2018-09-04T20:27:22.759Z,8.80
2018-09-04T20:29:53.148Z,8.80
2018-09-04T20:32:23.561Z,9.07
2018-09-04T20:34:54.088Z,9.33
2018-09-04T20:37:24.424Z,9.17
2018-09-04T20:39:54.964Z,9.33
2018-09-04T20:42:25.055Z,9.63
2018-09-04T20:44:55.129Z,8.80
2018-09-04T20:47:25.360Z,8.77
2018-09-04T20:49:55.407Z,9.87
2018-09-04T20:52:25.991Z,9.43
2018-09-04T20:54:57.093Z,9.77
2018-09-04T20:57:28.749Z,8.57
2018-09-04T21:00:11.382Z,9.47
2018-09-04T21:02:52.178Z,9.87
2018-09-04T21:05:33.024Z,10.30
2018-09-04T21:08:16.762Z,10.53
2018-09-04T21:10:48.821Z,9.90
2018-09-04T21:13:18.986Z,9.77
2018-09-04T21:15:49.400Z,9.53
2018-09-04T21:18:19.464Z,9.90
2018-09-04T21:20:51.260Z,9.73
2018-09-04T21:23:24.020Z,9.87
2018-09-04T21:25:55.735Z,10.37
2018-09-04T21:28:26.436Z,9.73
2018-09-04T21:30:57.174Z,9.93
2018-09-04T21:33:27.951Z,10.70
2018-09-04T21:35:59.701Z,10.60
2018-09-04T21:38:29.956Z,10.07
2018-09-04T21:41:00.750Z,9.93
2018-09-04T21:43:31.028Z,10.17
2018-09-04T21:46:00.888Z,10.17
2018-09-04T21:48:30.845Z,9.90
2018-09-04T21:51:00.892Z,11.13
2018-09-04T21:53:31.107Z,11.17
2018-09-04T21:56:01.546Z,11.53
2018-09-04T21:58:32.729Z,11.60
2018-09-04T22:01:04.041Z,11.40
2018-09-04T22:03:35.213Z,12.10
2018-09-04T22:06:06.688Z,11.83
2018-09-04T22:08:37.667Z,10.77
2018-09-04T22:11:08.136Z,11.80
2018-09-04T22:13:38.254Z,11.73
2018-09-04T22:16:09.563Z,11.37
2018-09-04T22:18:40.133Z,10.93
2018-09-04T22:21:11.438Z,10.37
2018-09-04T22:23:42.899Z,10.00
2018-09-04T22:26:13.138Z,10.87
2018-09-04T22:28:43.755Z,10.50
2018-09-04T22:31:15.652Z,10.57
2018-09-04T22:33:47.265Z,10.73
2018-09-04T22:36:18.278Z,10.77
2018-09-04T22:38:49.379Z,11.50
2018-09-04T22:41:20.597Z,10.73
2018-09-04T22:43:51.400Z,10.77
2018-09-04T22:46:22.028Z,10.63
2018-09-04T22:48:53.437Z,11.77
2018-09-04T22:51:30.024Z,12.07
2018-09-04T22:54:01.733Z,12.40
2018-09-04T22:56:33.944Z,11.97
2018-09-04T22:59:05.429Z,11.70
2018-09-04T23:01:36.399Z,11.83
2018-09-04T23:04:07.952Z,11.73
2018-09-04T23:06:39.342Z,11.23
2018-09-04T23:09:10.667Z,11.40
2018-09-04T23:11:42.004Z,11.63
2018-09-04T23:14:12.591Z,12.23
2018-09-04T23:16:43.560Z,12.60
2018-09-04T23:19:14.859Z,11.93
2018-09-04T23:21:46.620Z,11.40
2018-09-04T23:24:17.858Z,12.80
2018-09-04T23:26:48.659Z,12.13
2018-09-04T23:29:19.805Z,12.50
2018-09-04T23:31:50.705Z,13.17
2018-09-04T23:34:22.198Z,12.73
2018-09-04T23:36:53.687Z,13.40
2018-09-04T23:39:24.979Z,14.50
2018-09-04T23:41:55.867Z,13.20
2018-09-04T23:44:27.420Z,12.63
2018-09-04T23:46:58.992Z,12.23
2018-09-04T23:49:30.197Z,12.97
2018-09-04T23:52:01.569Z,11.73
2018-09-04T23:54:32.604Z,12.53
2018-09-04T23:57:03.731Z,11.40
2018-09-04T23:59:35.328Z,12.53
